createdAt,value
2022-08-17T00:02:26.107Z,96990.78
2022-08-17T00:05:32.199Z,96992.81
2022-08-17T00:08:37.438Z,96997.09
2022-08-17T00:11:42.645Z,96994.16
2022-08-17T00:15:10.447Z,96998.53
2022-08-17T00:19:01.685Z,96992.88
2022-08-17T00:22:28.658Z,96997.09
2022-08-17T00:25:05.346Z,97004.38
2022-08-17T00:28:08.710Z,97007.94
2022-08-17T00:31:14.122Z,96995.31
2022-08-17T00:34:17.066Z,96998.53
2022-08-17T00:37:20.050Z,97005.38
2022-08-17T00:40:24.814Z,97003.75
2022-08-17T00:43:33.403Z,96999.16
2022-08-17T00:46:44.794Z,96996.91
2022-08-17T00:49:47.591Z,97005.78
2022-08-17T00:52:56.112Z,97003.28
2022-08-17T00:56:01.738Z,97003.75
2022-08-17T00:59:06.239Z,97000.34
2022-08-17T01:02:13.552Z,97011.41
2022-08-17T01:05:26.798Z,97006.22
2022-08-17T01:08:32.681Z,97006.97
2022-08-17T01:11:40.624Z,97006.44
2022-08-17T01:14:44.005Z,97003.41
2022-08-17T01:17:48.986Z,97009.69
2022-08-17T01:20:58.601Z,97009.53
2022-08-17T01:24:03.224Z,97000.28
2022-08-17T01:27:10.293Z,97011.44
2022-08-17T01:30:58.358Z,97003.22
2022-08-17T01:33:37.721Z,97000.22
2022-08-17T01:36:43.195Z,97000.81
2022-08-17T01:39:52.170Z,97002.69
2022-08-17T01:42:59.995Z,97004.28
2022-08-17T01:46:04.302Z,97014.41
2022-08-17T01:49:08.776Z,97012.31
2022-08-17T01:52:13.200Z,97011.41
2022-08-17T01:55:24.579Z,97009.75
2022-08-17T01:58:30.498Z,97009.22
2022-08-17T02:01:35.650Z,97002.34
2022-08-17T02:04:38.592Z,97002.84
2022-08-17T02:07:59.966Z,97008.38
2022-08-17T02:11:11.187Z,96997.28
2022-08-17T02:14:15.516Z,96997.00
2022-08-17T02:17:21.507Z,96990.34
2022-08-17T02:20:41.985Z,96996.63
2022-08-17T02:23:49.654Z,96991.19
2022-08-17T02:26:53.889Z,97000.91
2022-08-17T02:29:57.596Z,96995.13
2022-08-17T02:33:00.551Z,96997.91
2022-08-17T02:36:11.658Z,96990.03
2022-08-17T02:39:14.575Z,96989.22
2022-08-17T02:42:19.230Z,96979.28
2022-08-17T02:45:24.087Z,96982.41
2022-08-17T02:48:31.009Z,96985.53
2022-08-17T02:51:35.342Z,96989.09
2022-08-17T02:54:39.853Z,96993.16
2022-08-17T02:57:45.742Z,96984.38
2022-08-17T03:00:48.848Z,96981.31
2022-08-17T03:03:51.633Z,96976.84
2022-08-17T03:06:54.469Z,96981.25
2022-08-17T03:09:57.268Z,96976.72
2022-08-17T03:13:01.696Z,96980.97
2022-08-17T03:16:05.010Z,96970.34
2022-08-17T03:19:07.736Z,96969.53
2022-08-17T03:22:37.067Z,96973.38
2022-08-17T03:25:35.926Z,96970.94
2022-08-17T03:28:41.360Z,96977.53
2022-08-17T03:31:44.273Z,96977.19
2022-08-17T03:34:47.760Z,96977.16
2022-08-17T03:38:00.009Z,96979.97
2022-08-17T03:41:05.753Z,96975.00
2022-08-17T03:44:09.883Z,96968.84
2022-08-17T03:47:30.309Z,96975.66
2022-08-17T03:50:50.849Z,96976.94
2022-08-17T03:54:14.015Z,96972.31
2022-08-17T03:57:17.343Z,96971.72
2022-08-17T04:00:22.221Z,96972.63
2022-08-17T04:03:25.066Z,96979.84
2022-08-17T04:06:28.033Z,96977.16
2022-08-17T04:09:31.095Z,96977.50
2022-08-17T04:12:44.908Z,96974.41
2022-08-17T04:15:49.467Z,96977.41
2022-08-17T04:18:52.377Z,96974.84
2022-08-17T04:21:55.188Z,96976.47
2022-08-17T04:24:57.993Z,96974.28
2022-08-17T04:28:02.724Z,96980.63
2022-08-17T04:31:07.304Z,96980.28
2022-08-17T04:34:11.358Z,96981.78
2022-08-17T04:37:14.130Z,96978.09
2022-08-17T04:40:35.203Z,96974.97
2022-08-17T04:43:39.904Z,96973.34
2022-08-17T04:46:44.053Z,96977.16
2022-08-17T04:49:46.806Z,96980.75
2022-08-17T04:52:52.231Z,96992.53
2022-08-17T04:55:57.325Z,96992.09
2022-08-17T04:59:03.595Z,97001.13
2022-08-17T05:02:07.747Z,97000.19
2022-08-17T05:05:10.654Z,97002.63
2022-08-17T05:08:17.014Z,97002.63
2022-08-17T05:11:20.253Z,97009.00
2022-08-17T05:14:33.092Z,97009.09
2022-08-17T05:17:37.755Z,97009.03
2022-08-17T05:20:41.722Z,97007.97
2022-08-17T05:23:45.499Z,97015.72
2022-08-17T05:26:56.040Z,97022.91
2022-08-17T05:29:58.784Z,97022.00
2022-08-17T05:33:05.306Z,97023.84
2022-08-17T05:36:37.899Z,97028.56
2022-08-17T05:39:36.503Z,97031.34
2022-08-17T05:42:39.355Z,97032.72
2022-08-17T05:45:55.390Z,97034.44
2022-08-17T05:49:04.707Z,97037.69
2022-08-17T05:52:21.758Z,97027.22
2022-08-17T05:55:34.050Z,97036.47
2022-08-17T05:58:49.391Z,97031.00
2022-08-17T06:01:59.506Z,97035.00
2022-08-17T06:05:16.548Z,97031.13
2022-08-17T06:08:29.763Z,97035.75
2022-08-17T06:11:38.998Z,97042.66
2022-08-17T06:14:54.448Z,97048.03
2022-08-17T06:18:01.707Z,97044.47
2022-08-17T06:21:09.541Z,97041.41
2022-08-17T06:24:29.673Z,97048.13
2022-08-17T06:27:36.809Z,97046.28
2022-08-17T06:30:59.863Z,97051.31
2022-08-17T06:34:07.902Z,97058.06
2022-08-17T06:37:37.207Z,97053.41
2022-08-17T06:40:57.194Z,97054.91
2022-08-17T06:44:11.009Z,97066.56
2022-08-17T06:47:28.766Z,97065.16
2022-08-17T06:50:38.419Z,97069.38
2022-08-17T06:53:48.774Z,97063.34
2022-08-17T06:56:57.298Z,97053.97
2022-08-17T07:00:02.782Z,97064.34
2022-08-17T07:03:15.446Z,97064.06
2022-08-17T07:06:21.842Z,97062.09
2022-08-17T07:09:30.395Z,97066.50
2022-08-17T07:12:38.579Z,97065.19
2022-08-17T07:15:43.522Z,97052.47
2022-08-17T07:18:47.595Z,97060.41
2022-08-17T07:21:58.261Z,97057.22
2022-08-17T07:25:06.310Z,97056.69
2022-08-17T07:28:09.307Z,97053.56
2022-08-17T07:31:14.290Z,97055.53
2022-08-17T07:34:17.110Z,97067.63
2022-08-17T07:37:20.885Z,97059.63
2022-08-17T07:40:35.125Z,97063.16
2022-08-17T07:43:46.323Z,97054.28
2022-08-17T07:47:08.701Z,97059.97
2022-08-17T07:50:27.322Z,97068.03
2022-08-17T07:53:31.210Z,97061.59
2022-08-17T07:56:43.103Z,97058.59
2022-08-17T08:00:30.797Z,97072.84
2022-08-17T08:03:42.044Z,97069.06
2022-08-17T08:06:52.638Z,97059.63
2022-08-17T08:10:07.533Z,97060.16
2022-08-17T08:13:14.540Z,97069.81
2022-08-17T08:16:25.785Z,97067.63
2022-08-17T08:19:30.114Z,97065.94
2022-08-17T08:22:46.920Z,97069.69
2022-08-17T08:25:59.536Z,97080.72
2022-08-17T08:29:14.833Z,97086.50
2022-08-17T08:32:28.561Z,97084.13
2022-08-17T08:35:34.992Z,97071.22
2022-08-17T08:38:47.902Z,97075.00
2022-08-17T08:42:00.131Z,97080.56
2022-08-17T08:45:12.501Z,97080.16
2022-08-17T08:48:55.850Z,97067.50
2022-08-17T08:51:56.792Z,97059.00
2022-08-17T08:55:07.672Z,97069.94
2022-08-17T08:58:31.344Z,97065.56
2022-08-17T09:01:46.928Z,97068.41
2022-08-17T09:05:14.347Z,97058.97
2022-08-17T09:08:26.023Z,97053.59
2022-08-17T09:12:02.062Z,97047.25
2022-08-17T09:15:15.127Z,97055.72
2022-08-17T09:18:59.924Z,97058.38
2022-08-17T09:21:53.681Z,97055.09
2022-08-17T09:25:03.853Z,97050.44
2022-08-17T09:28:09.095Z,97045.47
2022-08-17T09:31:20.157Z,97041.66
2022-08-17T09:34:33.456Z,97039.31
2022-08-17T09:37:45.149Z,97042.09
2022-08-17T09:40:54.204Z,97038.56
2022-08-17T09:44:03.518Z,97034.66
2022-08-17T09:47:11.238Z,97030.94
2022-08-17T09:51:04.850Z,97030.06
2022-08-17T09:53:44.964Z,97025.38
2022-08-17T09:57:25.798Z,97026.81
2022-08-17T10:00:25.857Z,97029.94
2022-08-17T10:03:48.985Z,97030.34
2022-08-17T10:07:02.152Z,97026.47
2022-08-17T10:10:14.575Z,97019.81
2022-08-17T10:13:35.817Z,97018.06
2022-08-17T10:16:45.186Z,97012.19
2022-08-17T10:19:57.270Z,97011.19
2022-08-17T10:23:25.181Z,97005.88
2022-08-17T10:26:46.317Z,97013.41
2022-08-17T10:30:04.560Z,97006.13
2022-08-17T10:33:16.152Z,97009.97
2022-08-17T10:36:27.868Z,96999.34
2022-08-17T10:39:52.344Z,96996.75
2022-08-17T10:43:01.524Z,96995.94
2022-08-17T10:46:31.410Z,97001.75
2022-08-17T10:49:36.328Z,97000.47
2022-08-17T10:52:50.387Z,96991.13
2022-08-17T10:56:49.605Z,96990.31
2022-08-17T10:59:54.879Z,96989.63
2022-08-17T11:02:59.964Z,96993.75
2022-08-17T11:06:21.391Z,96999.72
2022-08-17T11:09:45.011Z,96995.66
2022-08-17T11:12:55.444Z,96994.84
2022-08-17T11:16:10.505Z,96990.59
2022-08-17T11:19:40.341Z,96984.81
2022-08-17T11:23:07.706Z,96979.38
2022-08-17T11:26:26.362Z,96982.59
2022-08-17T11:29:35.074Z,96973.75
2022-08-17T11:32:47.492Z,96972.34
2022-08-17T11:35:56.993Z,96975.34
2022-08-17T11:39:05.953Z,96977.00
2022-08-17T11:42:25.575Z,96959.13
2022-08-17T11:45:53.187Z,96958.94
2022-08-17T11:49:21.985Z,96960.63
2022-08-17T11:52:41.231Z,96944.25
2022-08-17T11:56:08.191Z,96943.50
2022-08-17T11:59:48.656Z,96946.13
2022-08-17T12:03:23.498Z,96945.25
2022-08-17T12:06:52.625Z,96949.56
2022-08-17T12:09:57.474Z,96939.03
2022-08-17T12:13:02.891Z,96944.13
2022-08-17T12:16:07.281Z,96943.47
2022-08-17T12:19:19.323Z,96958.59
2022-08-17T12:22:29.240Z,96949.97
2022-08-17T12:25:38.477Z,96955.56
2022-08-17T12:28:47.101Z,96954.72
2022-08-17T12:31:51.905Z,96953.16
2022-08-17T12:34:54.888Z,96955.56
2022-08-17T12:38:04.587Z,96957.44
2022-08-17T12:41:23.691Z,96973.84
2022-08-17T12:44:28.745Z,96964.44
2022-08-17T12:47:31.987Z,96963.50
2022-08-17T12:50:35.968Z,96948.53
2022-08-17T12:53:42.507Z,96949.78
2022-08-17T12:56:47.641Z,96947.22
2022-08-17T12:59:54.903Z,96952.03
2022-08-17T13:03:01.610Z,96943.09
2022-08-17T13:06:06.467Z,96944.78
2022-08-17T13:09:12.769Z,96948.66
2022-08-17T13:12:15.768Z,96937.75
2022-08-17T13:15:29.639Z,96947.63
2022-08-17T13:18:39.054Z,96935.53
2022-08-17T13:21:47.928Z,96932.25
2022-08-17T13:24:55.594Z,96923.13
2022-08-17T13:27:58.684Z,96918.81
2022-08-17T13:31:33.023Z,96915.19
2022-08-17T13:35:12.993Z,96898.50
2022-08-17T13:38:11.265Z,96903.59
2022-08-17T13:41:38.856Z,96895.16
2022-08-17T13:44:42.766Z,96895.00
2022-08-17T13:47:45.746Z,96899.00
2022-08-17T13:51:03.451Z,96892.94
2022-08-17T13:54:18.726Z,96894.66
2022-08-17T13:57:25.871Z,96894.56
2022-08-17T14:00:32.719Z,96900.47
2022-08-17T14:03:35.883Z,96902.03
2022-08-17T14:06:54.038Z,96908.16
2022-08-17T14:10:01.129Z,96905.44
2022-08-17T14:13:06.339Z,96902.38
2022-08-17T14:16:09.334Z,96899.66
2022-08-17T14:19:17.211Z,96902.38
2022-08-17T14:22:24.786Z,96902.06
2022-08-17T14:25:30.159Z,96908.28
2022-08-17T14:28:36.538Z,96907.94
2022-08-17T14:31:39.853Z,96918.19
2022-08-17T14:34:45.931Z,96906.97
2022-08-17T14:37:49.151Z,96900.75
2022-08-17T14:40:52.306Z,96896.38
2022-08-17T14:43:56.676Z,96891.94
2022-08-17T14:46:59.640Z,96890.81
2022-08-17T14:50:04.326Z,96879.47
2022-08-17T14:53:14.656Z,96875.16
2022-08-17T14:56:18.002Z,96879.31
2022-08-17T14:59:22.241Z,96874.03
2022-08-17T15:02:30.477Z,96875.00
2022-08-17T15:05:36.690Z,96869.56
2022-08-17T15:08:39.685Z,96864.00
2022-08-17T15:11:44.790Z,96867.31
2022-08-17T15:14:49.132Z,96862.88
2022-08-17T15:17:52.308Z,96868.47
2022-08-17T15:20:55.512Z,96858.69
2022-08-17T15:23:59.012Z,96855.50
2022-08-17T15:27:02.337Z,96856.31
2022-08-17T15:30:08.020Z,96854.53
2022-08-17T15:33:15.590Z,96857.13
2022-08-17T15:36:19.360Z,96853.44
2022-08-17T15:39:22.589Z,96860.31
2022-08-17T15:42:25.670Z,96856.78
2022-08-17T15:45:30.829Z,96858.03
2022-08-17T15:48:42.320Z,96859.97
2022-08-17T15:51:45.423Z,96854.69
2022-08-17T15:54:52.273Z,96852.63
2022-08-17T15:57:55.254Z,96849.13
2022-08-17T16:01:14.966Z,96841.25
2022-08-17T16:04:30.054Z,96844.56
2022-08-17T16:07:34.637Z,96845.69
2022-08-17T16:10:37.894Z,96844.41
2022-08-17T16:13:41.653Z,96830.97
2022-08-17T16:16:47.237Z,96834.63
2022-08-17T16:19:52.217Z,96832.09
2022-08-17T16:22:55.732Z,96837.00
2022-08-17T16:25:58.664Z,96829.97
2022-08-17T16:29:06.947Z,96820.88
2022-08-17T16:32:14.577Z,96829.97
2022-08-17T16:35:18.277Z,96829.81
2022-08-17T16:38:22.275Z,96829.44
2022-08-17T16:41:42.864Z,96825.78
2022-08-17T16:44:46.026Z,96831.47
2022-08-17T16:47:50.702Z,96833.34
2022-08-17T16:51:03.549Z,96838.63
2022-08-17T16:54:08.585Z,96836.06
2022-08-17T16:57:11.739Z,96844.94
2022-08-17T17:00:17.681Z,96846.03
2022-08-17T17:03:25.939Z,96843.78
2022-08-17T17:06:41.236Z,96849.31
2022-08-17T17:09:48.569Z,96851.78
2022-08-17T17:13:03.310Z,96857.81
2022-08-17T17:16:18.075Z,96859.06
2022-08-17T17:19:34.242Z,96857.75
2022-08-17T17:22:48.110Z,96867.13
2022-08-17T17:25:59.337Z,96865.59
2022-08-17T17:29:25.961Z,96864.06
2022-08-17T17:32:38.128Z,96862.59
2022-08-17T17:35:49.082Z,96861.72
2022-08-17T17:38:55.281Z,96859.22
2022-08-17T17:42:00.147Z,96863.97
2022-08-17T17:45:09.231Z,96863.63
2022-08-17T17:48:12.216Z,96866.34
2022-08-17T17:52:09.555Z,96873.22
2022-08-17T17:55:06.134Z,96866.94
2022-08-17T17:58:37.862Z,96867.19
2022-08-17T18:01:52.059Z,96865.19
2022-08-17T18:05:06.409Z,96869.91
2022-08-17T18:08:33.980Z,96871.78
2022-08-17T18:11:51.702Z,96878.22
2022-08-17T18:15:12.183Z,96880.41
2022-08-17T18:18:37.549Z,96874.56
2022-08-17T18:21:44.431Z,96862.91
2022-08-17T18:24:55.821Z,96861.47
2022-08-17T18:27:58.645Z,96855.53
2022-08-17T18:31:11.748Z,96861.44
2022-08-17T18:34:46.007Z,96860.13
2022-08-17T18:37:49.954Z,96868.41
2022-08-17T18:41:07.934Z,96861.56
2022-08-17T18:44:24.794Z,96863.88
2022-08-17T18:47:29.626Z,96869.88
2022-08-17T18:50:39.603Z,96870.22
2022-08-17T18:53:42.831Z,96870.03
2022-08-17T18:56:51.103Z,96874.63
2022-08-17T18:59:54.271Z,96873.91
2022-08-17T19:03:00.997Z,96875.00
2022-08-17T19:06:18.976Z,96876.00
2022-08-17T19:09:36.903Z,96875.22
2022-08-17T19:12:46.574Z,96873.81
2022-08-17T19:16:14.359Z,96875.59
2022-08-17T19:19:23.334Z,96865.84
2022-08-17T19:22:31.259Z,96872.72
2022-08-17T19:25:39.956Z,96867.81
2022-08-17T19:28:48.682Z,96866.31
2022-08-17T19:31:52.982Z,96871.38
2022-08-17T19:34:56.867Z,96876.13
2022-08-17T19:38:06.131Z,96881.06
2022-08-17T19:41:23.303Z,96869.00
2022-08-17T19:44:49.867Z,96873.16
2022-08-17T19:48:03.269Z,96876.47
2022-08-17T19:51:11.336Z,96879.59
2022-08-17T19:54:24.784Z,96872.19
2022-08-17T19:57:42.702Z,96870.63
2022-08-17T20:00:51.479Z,96866.84
2022-08-17T20:03:59.043Z,96866.56
2022-08-17T20:07:05.513Z,96873.88
2022-08-17T20:10:13.039Z,96867.25
2022-08-17T20:13:19.571Z,96872.97
2022-08-17T20:16:37.883Z,96887.75
2022-08-17T20:19:51.991Z,96884.06
2022-08-17T20:23:01.967Z,96886.59
2022-08-17T20:26:18.516Z,96889.84
2022-08-17T20:29:37.162Z,96886.09
2022-08-17T20:32:55.336Z,96886.09
2022-08-17T20:36:05.792Z,96886.59
2022-08-17T20:39:31.288Z,96883.41
2022-08-17T20:42:37.741Z,96885.56
2022-08-17T20:45:53.775Z,96885.03
2022-08-17T20:49:01.019Z,96883.44
2022-08-17T20:52:08.700Z,96880.50
2022-08-17T20:55:52.350Z,96888.00
2022-08-17T20:58:55.655Z,96894.72
2022-08-17T21:02:19.040Z,96894.16
2022-08-17T21:05:34.422Z,96900.34
2022-08-17T21:08:45.682Z,96907.59
2022-08-17T21:12:05.450Z,96920.78
2022-08-17T21:15:21.178Z,96912.66
2022-08-17T21:18:32.361Z,96916.13
2022-08-17T21:21:46.693Z,96919.09
2022-08-17T21:24:56.991Z,96918.84
2022-08-17T21:28:07.645Z,96926.88
2022-08-17T21:31:34.233Z,96925.78
2022-08-17T21:34:39.208Z,96928.50
2022-08-17T21:37:45.303Z,96923.63
2022-08-17T21:40:51.111Z,96923.59
2022-08-17T21:43:56.511Z,96920.13
2022-08-17T21:47:14.294Z,96917.41
2022-08-17T21:50:20.826Z,96922.78
2022-08-17T21:53:33.000Z,96929.97
2022-08-17T21:56:39.780Z,96928.38
2022-08-17T21:59:44.259Z,96927.28
2022-08-17T22:02:56.921Z,96929.97
2022-08-17T22:05:59.667Z,96927.03
2022-08-17T22:09:20.338Z,96923.81
2022-08-17T22:12:24.824Z,96934.75
2022-08-17T22:15:31.555Z,96929.03
2022-08-17T22:18:34.729Z,96938.66
2022-08-17T22:21:37.510Z,96946.13
2022-08-17T22:24:41.828Z,96950.16
2022-08-17T22:27:47.924Z,96957.63
2022-08-17T22:31:02.326Z,96961.00
2022-08-17T22:34:19.280Z,96961.25
2022-08-17T22:37:29.864Z,96959.28
2022-08-17T22:40:35.393Z,96961.41
2022-08-17T22:43:39.167Z,96958.50
2022-08-17T22:46:57.140Z,96955.34
2022-08-17T22:50:02.859Z,96954.69
2022-08-17T22:53:34.510Z,96954.81
2022-08-17T22:56:57.484Z,96955.84
2022-08-17T23:00:02.688Z,96944.16
2022-08-17T23:03:13.766Z,96950.34
2022-08-17T23:06:16.976Z,96942.63
2022-08-17T23:09:19.760Z,96939.94
2022-08-17T23:12:27.590Z,96934.59
2022-08-17T23:15:32.896Z,96926.78
2022-08-17T23:18:36.372Z,96929.50
2022-08-17T23:21:39.402Z,96937.09
2022-08-17T23:24:48.955Z,96945.84
2022-08-17T23:27:53.360Z,96949.78
2022-08-17T23:30:56.462Z,96953.38
2022-08-17T23:33:59.700Z,96948.59
2022-08-17T23:37:04.289Z,96940.44
2022-08-17T23:40:08.583Z,96933.19
2022-08-17T23:43:24.262Z,96935.69
2022-08-17T23:46:28.650Z,96937.44
2022-08-17T23:49:32.148Z,96934.44
2022-08-17T23:52:37.785Z,96935.19
2022-08-17T23:55:40.592Z,96943.94
2022-08-17T23:58:45.829Z,96931.00
